sensor_id;sensor_type;location;lat;lon;timestamp;temperature;humidity
13665;DHT22;6905;50.770;6.730;2022-07-10T00:01:09;15.80;99.90
13665;DHT22;6905;50.770;6.730;2022-07-10T00:03:41;15.80;99.90
13665;DHT22;6905;50.770;6.730;2022-07-10T00:09:23;15.80;99.90
13665;DHT22;6905;50.770;6.730;2022-07-10T00:20:54;15.60;99.90
13665;DHT22;6905;50.770;6.730;2022-07-10T00:23:39;15.60;99.90
13665;DHT22;6905;50.770;6.730;2022-07-10T00:35:39;15.50;99.90
13665;DHT22;6905;50.770;6.730;2022-07-10T01:05:47;14.90;99.90
13665;DHT22;6905;50.770;6.730;2022-07-10T01:08:32;14.90;99.90
13665;DHT22;6905;50.770;6.730;2022-07-10T01:11:14;14.80;99.90
13665;DHT22;6905;50.770;6.730;2022-07-10T01:26:24;14.50;99.90
13665;DHT22;6905;50.770;6.730;2022-07-10T01:29:20;14.50;99.90
13665;DHT22;6905;50.770;6.730;2022-07-10T01:32:06;14.50;99.90
13665;DHT22;6905;50.770;6.730;2022-07-10T01:34:49;14.50;99.90
13665;DHT22;6905;50.770;6.730;2022-07-10T01:37:31;14.50;99.90
13665;DHT22;6905;50.770;6.730;2022-07-10T01:40:24;14.40;99.90
13665;DHT22;6905;50.770;6.730;2022-07-10T01:46:37;14.40;99.90
13665;DHT22;6905;50.770;6.730;2022-07-10T01:49:24;14.40;99.90
13665;DHT22;6905;50.770;6.730;2022-07-10T01:52:07;14.40;99.90
13665;DHT22;6905;50.770;6.730;2022-07-10T03:02:45;14.30;99.90
13665;DHT22;6905;50.770;6.730;2022-07-10T03:08:51;14.30;99.90
13665;DHT22;6905;50.770;6.730;2022-07-10T03:11:33;14.30;99.90
13665;DHT22;6905;50.770;6.730;2022-07-10T03:14:20;14.30;99.90
13665;DHT22;6905;50.770;6.730;2022-07-10T03:35:27;14.20;99.90
13665;DHT22;6905;50.770;6.730;2022-07-10T03:38:27;14.20;99.90
13665;DHT22;6905;50.770;6.730;2022-07-10T03:41:44;14.20;99.90
13665;DHT22;6905;50.770;6.730;2022-07-10T03:44:33;14.20;99.90
13665;DHT22;6905;50.770;6.730;2022-07-10T03:47:21;14.10;99.90
13665;DHT22;6905;50.770;6.730;2022-07-10T03:50:05;14.10;99.90
13665;DHT22;6905;50.770;6.730;2022-07-10T04:11:55;14.00;99.90
13665;DHT22;6905;50.770;6.730;2022-07-10T05:34:39;15.10;99.90
13665;DHT22;6905;50.770;6.730;2022-07-10T06:02:35;15.80;99.90
13665;DHT22;6905;50.770;6.730;2022-07-10T06:50:53;16.90;99.90
13665;DHT22;6905;50.770;6.730;2022-07-10T07:13:39;17.60;99.90
13665;DHT22;6905;50.770;6.730;2022-07-10T09:20:15;19.80;99.90
13665;DHT22;6905;50.770;6.730;2022-07-10T09:23:17;20.00;99.90
13665;DHT22;6905;50.770;6.730;2022-07-10T09:32:33;20.10;99.90
13665;DHT22;6905;50.770;6.730;2022-07-10T10:59:01;20.00;99.90
13665;DHT22;6905;50.770;6.730;2022-07-10T11:24:41;21.10;99.90
13665;DHT22;6905;50.770;6.730;2022-07-10T11:27:12;21.30;99.90
13665;DHT22;6905;50.770;6.730;2022-07-10T11:38:59;21.70;99.90
13665;DHT22;6905;50.770;6.730;2022-07-10T12:19:38;20.50;99.90
13665;DHT22;6905;50.770;6.730;2022-07-10T13:18:30;20.50;99.90
13665;DHT22;6905;50.770;6.730;2022-07-10T13:21:08;20.50;99.90
13665;DHT22;6905;50.770;6.730;2022-07-10T13:27:08;20.40;99.90
13665;DHT22;6905;50.770;6.730;2022-07-10T13:29:44;20.20;99.90
13665;DHT22;6905;50.770;6.730;2022-07-10T13:32:16;20.20;99.90
13665;DHT22;6905;50.770;6.730;2022-07-10T13:35:09;20.10;99.90
13665;DHT22;6905;50.770;6.730;2022-07-10T13:37:45;20.10;99.90
13665;DHT22;6905;50.770;6.730;2022-07-10T13:43:16;20.00;99.90
13665;DHT22;6905;50.770;6.730;2022-07-10T13:45:46;20.00;99.90
13665;DHT22;6905;50.770;6.730;2022-07-10T14:15:43;21.30;99.90
13665;DHT22;6905;50.770;6.730;2022-07-10T14:18:19;21.60;99.90
13665;DHT22;6905;50.770;6.730;2022-07-10T14:24:07;22.30;99.90
13665;DHT22;6905;50.770;6.730;2022-07-10T14:26:40;22.60;99.90
13665;DHT22;6905;50.770;6.730;2022-07-10T14:38:50;22.00;99.90
13665;DHT22;6905;50.770;6.730;2022-07-10T14:47:27;21.90;99.90
13665;DHT22;6905;50.770;6.730;2022-07-10T14:52:59;22.10;99.90
13665;DHT22;6905;50.770;6.730;2022-07-10T15:01:26;22.50;99.90
13665;DHT22;6905;50.770;6.730;2022-07-10T15:23:42;23.10;99.90
13665;DHT22;6905;50.770;6.730;2022-07-10T15:26:15;23.00;99.90
13665;DHT22;6905;50.770;6.730;2022-07-10T15:31:57;22.70;99.90
13665;DHT22;6905;50.770;6.730;2022-07-10T15:34:46;22.60;99.90
13665;DHT22;6905;50.770;6.730;2022-07-10T15:52:50;22.10;99.90
13665;DHT22;6905;50.770;6.730;2022-07-10T16:01:35;22.00;99.90
13665;DHT22;6905;50.770;6.730;2022-07-10T16:04:19;22.00;99.90
13665;DHT22;6905;50.770;6.730;2022-07-10T16:07:01;22.00;99.90
13665;DHT22;6905;50.770;6.730;2022-07-10T16:12:49;22.00;99.90
13665;DHT22;6905;50.770;6.730;2022-07-10T16:15:18;21.90;99.90
13665;DHT22;6905;50.770;6.730;2022-07-10T16:18:04;21.90;99.90
13665;DHT22;6905;50.770;6.730;2022-07-10T16:21:01;21.90;99.90
13665;DHT22;6905;50.770;6.730;2022-07-10T16:23:34;21.90;99.90
13665;DHT22;6905;50.770;6.730;2022-07-10T16:29:26;21.80;99.90
13665;DHT22;6905;50.770;6.730;2022-07-10T16:32:07;21.80;99.90
13665;DHT22;6905;50.770;6.730;2022-07-10T16:37:39;21.80;99.90
13665;DHT22;6905;50.770;6.730;2022-07-10T16:40:08;21.70;99.90
13665;DHT22;6905;50.770;6.730;2022-07-10T16:42:39;21.70;99.90
13665;DHT22;6905;50.770;6.730;2022-07-10T16:45:33;21.70;99.90
13665;DHT22;6905;50.770;6.730;2022-07-10T16:51:41;21.60;99.90
13665;DHT22;6905;50.770;6.730;2022-07-10T16:54:25;21.60;99.90
13665;DHT22;6905;50.770;6.730;2022-07-10T16:57:07;21.60;99.90
13665;DHT22;6905;50.770;6.730;2022-07-10T16:59:47;21.60;99.90
13665;DHT22;6905;50.770;6.730;2022-07-10T17:02:35;21.60;99.90
13665;DHT22;6905;50.770;6.730;2022-07-10T17:05:31;21.50;99.90
13665;DHT22;6905;50.770;6.730;2022-07-10T17:08:41;21.50;99.90
13665;DHT22;6905;50.770;6.730;2022-07-10T17:14:45;21.30;99.90
13665;DHT22;6905;50.770;6.730;2022-07-10T17:17:48;21.30;99.90
13665;DHT22;6905;50.770;6.730;2022-07-10T17:23:51;21.30;99.90
13665;DHT22;6905;50.770;6.730;2022-07-10T17:29:49;21.20;99.90
13665;DHT22;6905;50.770;6.730;2022-07-10T17:32:31;21.10;99.90
13665;DHT22;6905;50.770;6.730;2022-07-10T17:35:04;21.10;99.90
13665;DHT22;6905;50.770;6.730;2022-07-10T17:44:06;21.10;99.90
13665;DHT22;6905;50.770;6.730;2022-07-10T18:16:22;20.70;99.90
13665;DHT22;6905;50.770;6.730;2022-07-10T18:19:12;20.70;99.90
13665;DHT22;6905;50.770;6.730;2022-07-10T18:21:41;20.60;99.90
13665;DHT22;6905;50.770;6.730;2022-07-10T18:24:28;20.60;99.90
13665;DHT22;6905;50.770;6.730;2022-07-10T18:27:10;20.60;99.90
13665;DHT22;6905;50.770;6.730;2022-07-10T18:30:03;20.60;99.90
13665;DHT22;6905;50.770;6.730;2022-07-10T18:32:43;20.50;99.90
13665;DHT22;6905;50.770;6.730;2022-07-10T18:44:37;20.40;99.90
13665;DHT22;6905;50.770;6.730;2022-07-10T19:58:14;20.10;99.90
13665;DHT22;6905;50.770;6.730;2022-07-10T20:00:43;20.10;99.90
13665;DHT22;6905;50.770;6.730;2022-07-10T20:03:10;20.00;99.90
13665;DHT22;6905;50.770;6.730;2022-07-10T20:05:42;20.00;99.90
13665;DHT22;6905;50.770;6.730;2022-07-10T20:08:24;20.00;99.90
13665;DHT22;6905;50.770;6.730;2022-07-10T20:10:52;20.00;99.90
13665;DHT22;6905;50.770;6.730;2022-07-10T20:13:42;20.00;99.90
13665;DHT22;6905;50.770;6.730;2022-07-10T20:16:36;20.00;99.90
13665;DHT22;6905;50.770;6.730;2022-07-10T20:19:06;19.90;99.90
13665;DHT22;6905;50.770;6.730;2022-07-10T20:21:48;19.90;99.90
13665;DHT22;6905;50.770;6.730;2022-07-10T20:24:30;19.90;99.90
13665;DHT22;6905;50.770;6.730;2022-07-10T20:27:13;19.80;99.90
13665;DHT22;6905;50.770;6.730;2022-07-10T20:30:06;19.80;99.90
13665;DHT22;6905;50.770;6.730;2022-07-10T20:32:36;19.80;99.90
13665;DHT22;6905;50.770;6.730;2022-07-10T20:35:09;19.80;99.90
13665;DHT22;6905;50.770;6.730;2022-07-10T20:37:51;19.70;99.90
13665;DHT22;6905;50.770;6.730;2022-07-10T20:40:29;19.70;99.90
13665;DHT22;6905;50.770;6.730;2022-07-10T20:43:26;19.70;99.90
13665;DHT22;6905;50.770;6.730;2022-07-10T20:55:32;19.60;99.90
13665;DHT22;6905;50.770;6.730;2022-07-10T20:58:27;19.60;99.90
13665;DHT22;6905;50.770;6.730;2022-07-10T21:01:02;19.60;99.90
13665;DHT22;6905;50.770;6.730;2022-07-10T21:03:46;19.60;99.90
13665;DHT22;6905;50.770;6.730;2022-07-10T21:06:31;19.60;99.90
13665;DHT22;6905;50.770;6.730;2022-07-10T21:09:20;19.60;99.90
13665;DHT22;6905;50.770;6.730;2022-07-10T21:12:33;19.50;99.90
13665;DHT22;6905;50.770;6.730;2022-07-10T21:18:22;19.50;99.90
13665;DHT22;6905;50.770;6.730;2022-07-10T21:23:53;19.50;99.90
13665;DHT22;6905;50.770;6.730;2022-07-10T21:26:24;19.50;99.90
13665;DHT22;6905;50.770;6.730;2022-07-10T21:29:06;19.50;99.90
13665;DHT22;6905;50.770;6.730;2022-07-10T21:31:56;19.40;99.90
13665;DHT22;6905;50.770;6.730;2022-07-10T21:38:04;19.40;99.90
13665;DHT22;6905;50.770;6.730;2022-07-10T21:43:11;19.30;99.90
13665;DHT22;6905;50.770;6.730;2022-07-10T21:48:37;19.40;99.90
13665;DHT22;6905;50.770;6.730;2022-07-10T21:51:21;19.30;99.90
13665;DHT22;6905;50.770;6.730;2022-07-10T21:53:49;19.30;99.90
13665;DHT22;6905;50.770;6.730;2022-07-10T21:56:17;19.30;99.90
13665;DHT22;6905;50.770;6.730;2022-07-10T21:58:46;19.20;99.90
13665;DHT22;6905;50.770;6.730;2022-07-10T22:01:17;19.20;99.90
13665;DHT22;6905;50.770;6.730;2022-07-10T22:03:54;19.20;99.90
13665;DHT22;6905;50.770;6.730;2022-07-10T22:06:36;19.20;99.90
13665;DHT22;6905;50.770;6.730;2022-07-10T22:09:05;19.20;99.90
13665;DHT22;6905;50.770;6.730;2022-07-10T22:11:38;19.10;99.90
13665;DHT22;6905;50.770;6.730;2022-07-10T22:14:06;19.10;99.90
13665;DHT22;6905;50.770;6.730;2022-07-10T22:16:35;19.10;99.90
13665;DHT22;6905;50.770;6.730;2022-07-10T22:19:05;19.10;99.90
13665;DHT22;6905;50.770;6.730;2022-07-10T22:21:34;19.10;99.90
13665;DHT22;6905;50.770;6.730;2022-07-10T22:24:07;19.10;99.90
13665;DHT22;6905;50.770;6.730;2022-07-10T22:26:41;19.10;99.90
13665;DHT22;6905;50.770;6.730;2022-07-10T22:29:11;19.10;99.90
13665;DHT22;6905;50.770;6.730;2022-07-10T22:31:44;19.10;99.90
13665;DHT22;6905;50.770;6.730;2022-07-10T22:34:29;19.10;99.90
13665;DHT22;6905;50.770;6.730;2022-07-10T22:36:58;19.10;99.90
13665;DHT22;6905;50.770;6.730;2022-07-10T22:39:30;19.10;99.90
13665;DHT22;6905;50.770;6.730;2022-07-10T22:42:12;19.00;99.90
13665;DHT22;6905;50.770;6.730;2022-07-10T22:44:41;19.00;99.90
13665;DHT22;6905;50.770;6.730;2022-07-10T22:47:11;19.00;99.90
13665;DHT22;6905;50.770;6.730;2022-07-10T22:49:50;19.00;99.90
13665;DHT22;6905;50.770;6.730;2022-07-10T22:52:19;19.00;99.90
13665;DHT22;6905;50.770;6.730;2022-07-10T22:54:50;19.00;99.90
13665;DHT22;6905;50.770;6.730;2022-07-10T22:57:21;19.00;99.90
13665;DHT22;6905;50.770;6.730;2022-07-10T22:59:52;19.00;99.90
13665;DHT22;6905;50.770;6.730;2022-07-10T23:09:06;18.90;99.90
13665;DHT22;6905;50.770;6.730;2022-07-10T23:11:39;18.90;99.90
13665;DHT22;6905;50.770;6.730;2022-07-10T23:14:07;18.90;99.90
13665;DHT22;6905;50.770;6.730;2022-07-10T23:16:35;18.80;99.90
13665;DHT22;6905;50.770;6.730;2022-07-10T23:19:04;18.80;99.90
13665;DHT22;6905;50.770;6.730;2022-07-10T23:21:31;18.80;99.90
13665;DHT22;6905;50.770;6.730;2022-07-10T23:23:58;18.80;99.90
13665;DHT22;6905;50.770;6.730;2022-07-10T23:26:29;18.80;99.90
13665;DHT22;6905;50.770;6.730;2022-07-10T23:28:57;18.80;99.90
13665;DHT22;6905;50.770;6.730;2022-07-10T23:31:25;18.80;99.90
13665;DHT22;6905;50.770;6.730;2022-07-10T23:33:56;18.80;99.90
13665;DHT22;6905;50.770;6.730;2022-07-10T23:36:23;18.70;99.90
13665;DHT22;6905;50.770;6.730;2022-07-10T23:38:50;18.70;99.90
13665;DHT22;6905;50.770;6.730;2022-07-10T23:41:17;18.70;99.90
13665;DHT22;6905;50.770;6.730;2022-07-10T23:43:57;18.70;99.90
13665;DHT22;6905;50.770;6.730;2022-07-10T23:46:26;18.70;99.90
13665;DHT22;6905;50.770;6.730;2022-07-10T23:48:53;18.70;99.90
13665;DHT22;6905;50.770;6.730;2022-07-10T23:51:37;18.70;99.90
13665;DHT22;6905;50.770;6.730;2022-07-10T23:54:10;18.70;99.90
13665;DHT22;6905;50.770;6.730;2022-07-10T23:56:42;18.60;99.90
13665;DHT22;6905;50.770;6.730;2022-07-10T23:59:13;18.60;99.90
